createdAt,value
2024-01-21T00:00:48.798Z,8.60
2024-01-21T00:03:16.027Z,8.60
2024-01-21T00:05:42.830Z,8.70
2024-01-21T00:08:09.889Z,8.80
2024-01-21T00:10:36.713Z,8.70
2024-01-21T00:13:03.622Z,8.70
2024-01-21T00:15:30.449Z,8.80
2024-01-21T00:17:57.341Z,8.60
2024-01-21T00:20:24.213Z,8.50
2024-01-21T00:22:51.240Z,8.50
2024-01-21T00:25:17.993Z,8.50
2024-01-21T00:27:44.953Z,8.50
2024-01-21T00:30:12.363Z,8.50
2024-01-21T00:32:39.174Z,8.40
2024-01-21T00:35:06.842Z,8.40
2024-01-21T00:37:33.628Z,8.40
2024-01-21T00:40:00.358Z,8.40
2024-01-21T00:42:27.146Z,8.40
2024-01-21T00:44:53.959Z,8.30
2024-01-21T00:47:21.422Z,8.30
2024-01-21T00:49:48.538Z,8.20
2024-01-21T00:52:15.507Z,8.30
2024-01-21T00:54:42.322Z,8.30
2024-01-21T00:57:09.249Z,8.20
2024-01-21T00:59:36.105Z,8.20
2024-01-21T01:02:03.056Z,9.10
2024-01-21T01:04:29.866Z,7.90
2024-01-21T01:06:56.759Z,7.90
2024-01-21T01:09:23.566Z,7.90
2024-01-21T01:11:50.377Z,7.70
2024-01-21T01:14:17.229Z,7.80
2024-01-21T01:16:44.591Z,7.70
2024-01-21T01:19:11.691Z,7.60
2024-01-21T01:21:38.718Z,7.70
2024-01-21T01:24:06.000Z,7.60
2024-01-21T01:26:32.786Z,7.60
2024-01-21T01:28:59.738Z,7.70
2024-01-21T01:31:26.545Z,7.70
2024-01-21T01:33:53.610Z,7.70
2024-01-21T01:36:20.483Z,7.70
2024-01-21T01:38:47.335Z,7.70
2024-01-21T01:41:14.157Z,7.70
2024-01-21T01:43:40.859Z,7.80
2024-01-21T01:46:07.765Z,7.90
2024-01-21T01:48:34.964Z,7.80
2024-01-21T01:51:05.115Z,7.80
2024-01-21T01:53:32.826Z,7.80
2024-01-21T01:56:00.254Z,7.90
2024-01-21T01:58:28.981Z,7.30
2024-01-21T02:00:59.388Z,8.00
2024-01-21T02:03:27.019Z,8.10
2024-01-21T02:05:54.098Z,8.30
2024-01-21T02:08:21.467Z,8.10
2024-01-21T02:10:48.263Z,8.10
2024-01-21T02:13:16.871Z,8.10
2024-01-21T02:15:44.314Z,8.30
2024-01-21T02:18:11.448Z,8.20
2024-01-21T02:20:38.658Z,8.20
2024-01-21T02:23:08.214Z,8.20
2024-01-21T02:25:35.838Z,8.30
2024-01-21T02:28:02.987Z,8.40
2024-01-21T02:30:29.902Z,8.50
2024-01-21T02:32:56.701Z,8.40
2024-01-21T02:35:23.509Z,8.50
2024-01-21T02:37:50.312Z,8.50
2024-01-21T02:40:17.124Z,8.60
2024-01-21T02:42:44.296Z,8.50
2024-01-21T02:45:11.318Z,8.50
2024-01-21T02:47:38.230Z,8.80
2024-01-21T02:50:05.574Z,8.40
2024-01-21T02:52:32.370Z,8.40
2024-01-21T02:55:03.388Z,8.50
2024-01-21T02:57:32.137Z,10.20
2024-01-21T02:59:59.090Z,8.70
2024-01-21T03:02:25.969Z,9.60
2024-01-21T03:04:52.990Z,8.60
2024-01-21T03:07:19.818Z,8.70
2024-01-21T03:09:46.656Z,8.70
2024-01-21T03:12:13.670Z,8.60
2024-01-21T03:14:40.556Z,8.70
2024-01-21T03:17:08.452Z,8.70
2024-01-21T03:19:35.468Z,8.70
2024-01-21T03:22:02.239Z,9.70
2024-01-21T03:24:29.108Z,8.70
2024-01-21T03:26:56.011Z,8.70
2024-01-21T03:29:22.938Z,8.60
2024-01-21T03:31:49.849Z,8.70
2024-01-21T03:34:16.825Z,8.50
2024-01-21T03:36:43.868Z,8.80
2024-01-21T03:39:11.163Z,8.70
2024-01-21T03:41:38.203Z,8.70
2024-01-21T03:44:05.328Z,9.80
2024-01-21T03:46:32.412Z,8.70
2024-01-21T03:48:59.488Z,9.10
2024-01-21T03:51:26.559Z,8.90
2024-01-21T03:53:53.384Z,9.00
2024-01-21T03:56:20.595Z,9.00
2024-01-21T03:58:48.129Z,8.90
2024-01-21T04:01:15.321Z,9.00
2024-01-21T04:03:42.671Z,8.90
2024-01-21T04:06:09.723Z,8.90
2024-01-21T04:08:37.262Z,8.90
2024-01-21T04:11:04.482Z,9.00
2024-01-21T04:13:33.255Z,9.00
2024-01-21T04:16:00.750Z,9.10
2024-01-21T04:18:28.017Z,9.10
2024-01-21T04:20:54.977Z,9.10
2024-01-21T04:23:21.740Z,9.20
2024-01-21T04:25:49.250Z,9.10
2024-01-21T04:28:16.101Z,9.30
2024-01-21T04:30:42.990Z,9.40
2024-01-21T04:33:09.854Z,9.30
2024-01-21T04:35:38.211Z,9.30
2024-01-21T04:38:05.071Z,9.30
2024-01-21T04:40:32.090Z,9.40
2024-01-21T04:42:59.942Z,9.50
2024-01-21T04:45:26.855Z,9.50
2024-01-21T04:47:53.817Z,9.60
2024-01-21T04:50:20.660Z,9.60
2024-01-21T04:52:47.491Z,9.70
2024-01-21T04:55:15.105Z,9.80
2024-01-21T04:57:42.038Z,9.90
2024-01-21T05:00:09.366Z,9.90
2024-01-21T05:02:36.202Z,10.00
2024-01-21T05:05:03.200Z,10.00
2024-01-21T05:07:29.985Z,10.10
2024-01-21T05:09:57.928Z,10.20
2024-01-21T05:12:24.828Z,10.30
2024-01-21T05:14:52.141Z,10.30
2024-01-21T05:17:19.012Z,10.30
2024-01-21T05:19:46.300Z,10.30
2024-01-21T05:22:13.096Z,10.40
2024-01-21T05:24:39.969Z,10.50
2024-01-21T05:27:06.858Z,10.40
2024-01-21T05:29:36.520Z,10.50
2024-01-21T05:32:05.296Z,10.60
2024-01-21T05:34:32.428Z,10.70
2024-01-21T05:36:59.413Z,10.70
2024-01-21T05:39:26.391Z,10.70
2024-01-21T05:42:07.665Z,10.90
2024-01-21T05:44:34.967Z,11.00
2024-01-21T05:47:02.103Z,10.90
2024-01-21T05:49:29.827Z,11.10
2024-01-21T05:51:56.818Z,11.40
2024-01-21T05:54:23.964Z,11.60
2024-01-21T05:56:50.863Z,11.90
2024-01-21T05:59:18.679Z,11.90
2024-01-21T06:01:49.416Z,12.00
2024-01-21T06:04:17.802Z,12.00
2024-01-21T06:06:45.856Z,12.00
2024-01-21T06:09:13.125Z,11.90
2024-01-21T06:11:41.697Z,12.00
2024-01-21T06:14:09.086Z,12.10
2024-01-21T06:16:36.223Z,12.20
2024-01-21T06:19:03.438Z,12.10
2024-01-21T06:21:30.879Z,12.10
2024-01-21T06:23:57.885Z,12.20
2024-01-21T06:26:24.725Z,12.20
2024-01-21T06:28:52.587Z,12.20
2024-01-21T06:31:20.192Z,12.20
2024-01-21T06:33:48.157Z,12.10
2024-01-21T06:36:15.967Z,12.20
2024-01-21T06:38:42.777Z,12.20
2024-01-21T06:41:09.618Z,12.20
2024-01-21T06:43:36.382Z,12.20
2024-01-21T06:46:03.254Z,12.20
2024-01-21T06:48:30.361Z,11.40
2024-01-21T06:50:57.589Z,12.20
2024-01-21T06:53:24.721Z,12.20
2024-01-21T06:55:51.610Z,12.20
2024-01-21T06:58:20.867Z,12.20
2024-01-21T07:00:52.845Z,12.20
2024-01-21T07:03:20.716Z,12.20
2024-01-21T07:05:48.143Z,12.20
2024-01-21T07:08:15.193Z,12.30
2024-01-21T07:10:42.328Z,12.20
2024-01-21T07:13:09.368Z,12.30
2024-01-21T07:15:36.272Z,12.20
2024-01-21T07:18:04.946Z,12.30
2024-01-21T07:20:33.906Z,12.30
2024-01-21T07:23:00.939Z,12.30
2024-01-21T07:25:27.952Z,12.30
2024-01-21T07:27:54.886Z,12.40
2024-01-21T07:30:21.699Z,12.40
2024-01-21T07:32:50.972Z,12.50
2024-01-21T07:35:21.031Z,12.40
2024-01-21T07:37:48.010Z,12.40
2024-01-21T07:40:15.068Z,12.50
2024-01-21T07:42:41.990Z,12.40
2024-01-21T07:45:09.224Z,12.50
2024-01-21T07:47:36.070Z,12.50
2024-01-21T07:50:03.073Z,12.60
2024-01-21T07:52:29.921Z,12.60
2024-01-21T07:54:56.841Z,12.60
2024-01-21T07:57:23.995Z,12.50
2024-01-21T07:59:50.912Z,12.50
2024-01-21T08:02:17.903Z,12.60
2024-01-21T08:04:48.879Z,12.70
2024-01-21T08:07:15.761Z,12.60
2024-01-21T08:09:42.668Z,12.70
2024-01-21T08:12:09.564Z,12.80
2024-01-21T08:14:36.756Z,12.80
2024-01-21T08:17:04.047Z,12.80
2024-01-21T08:19:31.073Z,12.80
2024-01-21T08:21:58.144Z,12.90
2024-01-21T08:24:25.205Z,13.30
2024-01-21T08:26:52.114Z,12.90
2024-01-21T08:29:19.050Z,12.90
2024-01-21T08:31:46.284Z,13.10
2024-01-21T08:34:13.321Z,13.00
2024-01-21T08:36:40.929Z,13.10
2024-01-21T08:39:10.369Z,13.10
2024-01-21T08:41:37.653Z,13.10
2024-01-21T08:44:04.730Z,13.20
2024-01-21T08:46:32.289Z,13.30
2024-01-21T08:48:59.532Z,13.50
2024-01-21T08:51:26.652Z,12.90
2024-01-21T08:53:56.546Z,12.50
2024-01-21T08:56:27.094Z,11.90
2024-01-21T08:58:55.210Z,11.90
2024-01-21T09:01:22.877Z,11.60
2024-01-21T09:03:50.999Z,11.30
2024-01-21T09:06:18.334Z,11.00
2024-01-21T09:08:45.582Z,11.00
2024-01-21T09:11:13.358Z,10.80
2024-01-21T09:13:41.077Z,10.80
2024-01-21T09:16:10.308Z,10.40
2024-01-21T09:18:38.440Z,10.10
2024-01-21T09:21:07.219Z,10.40
2024-01-21T09:23:37.455Z,10.30
2024-01-21T09:26:04.441Z,10.50
2024-01-21T09:28:31.260Z,10.30
2024-01-21T09:30:58.305Z,10.10
2024-01-21T09:33:25.420Z,10.00
2024-01-21T09:35:52.342Z,10.00
2024-01-21T09:38:22.553Z,10.00
2024-01-21T09:41:01.708Z,10.00
2024-01-21T09:43:34.474Z,9.90
2024-01-21T09:46:01.623Z,9.80
2024-01-21T09:48:29.546Z,9.70
2024-01-21T09:50:58.595Z,9.60
2024-01-21T09:53:26.480Z,9.40
2024-01-21T09:56:08.571Z,9.40
2024-01-21T09:58:44.659Z,9.20
2024-01-21T10:01:11.941Z,9.30
2024-01-21T10:03:39.013Z,9.70
2024-01-21T10:06:06.306Z,8.90
2024-01-21T10:08:33.238Z,9.00
2024-01-21T10:11:04.053Z,8.50
2024-01-21T10:13:39.658Z,8.50
2024-01-21T10:16:11.168Z,8.50
2024-01-21T10:18:38.694Z,8.80
2024-01-21T10:21:09.470Z,9.70
2024-01-21T10:23:48.005Z,8.60
2024-01-21T10:26:14.885Z,7.70
2024-01-21T10:28:43.206Z,8.10
2024-01-21T10:31:10.213Z,9.70
2024-01-21T10:33:37.254Z,7.80
2024-01-21T10:36:04.835Z,7.80
2024-01-21T10:38:41.768Z,7.50
2024-01-21T10:41:10.215Z,7.10
2024-01-21T10:43:38.200Z,7.40
2024-01-21T10:46:05.745Z,7.20
2024-01-21T10:48:34.119Z,6.90
2024-01-21T10:51:02.084Z,6.80
2024-01-21T10:53:30.759Z,6.90
2024-01-21T10:55:58.362Z,6.70
2024-01-21T10:58:25.313Z,7.10
2024-01-21T11:00:54.274Z,6.50
2024-01-21T11:03:30.491Z,6.80
2024-01-21T11:06:02.733Z,6.50
2024-01-21T11:08:30.340Z,6.10
2024-01-21T11:11:18.726Z,6.30
2024-01-21T11:13:47.719Z,6.10
2024-01-21T11:16:26.923Z,5.90
2024-01-21T11:18:54.480Z,5.60
2024-01-21T11:21:21.949Z,5.60
2024-01-21T11:24:13.496Z,6.00
2024-01-21T11:26:48.034Z,5.20
2024-01-21T11:29:29.388Z,5.20
2024-01-21T11:32:01.319Z,5.40
2024-01-21T11:34:38.164Z,5.30
2024-01-21T11:37:05.904Z,5.40
2024-01-21T11:39:32.845Z,5.50
2024-01-21T11:42:00.972Z,5.50
2024-01-21T11:44:30.725Z,5.30
2024-01-21T11:47:01.046Z,4.90
2024-01-21T11:49:28.431Z,5.20
2024-01-21T11:51:55.696Z,5.40
2024-01-21T11:54:23.022Z,4.90
2024-01-21T11:56:51.292Z,4.50
2024-01-21T11:59:18.416Z,4.20
2024-01-21T12:01:46.402Z,3.90
2024-01-21T12:04:13.446Z,3.60
2024-01-21T12:06:43.019Z,3.40
2024-01-21T12:09:11.219Z,3.40
2024-01-21T12:11:39.459Z,3.50
2024-01-21T12:14:13.034Z,3.60
2024-01-21T12:16:40.542Z,3.70
2024-01-21T12:19:07.903Z,3.30
2024-01-21T12:21:35.144Z,3.30
2024-01-21T12:24:03.708Z,3.10
2024-01-21T12:26:30.734Z,2.80
2024-01-21T12:29:05.675Z,2.60
2024-01-21T12:31:39.065Z,2.50
2024-01-21T12:34:07.019Z,2.60
2024-01-21T12:36:39.350Z,2.40
2024-01-21T12:39:06.371Z,2.20
2024-01-21T12:41:34.358Z,2.00
2024-01-21T12:44:01.471Z,1.70
2024-01-21T12:46:28.577Z,1.80
2024-01-21T12:48:55.548Z,1.30
2024-01-21T12:51:24.747Z,1.10
2024-01-21T12:53:55.679Z,1.40
2024-01-21T12:56:22.658Z,1.10
2024-01-21T12:58:49.775Z,1.00
2024-01-21T13:01:19.706Z,1.80
2024-01-21T13:03:47.804Z,1.00
2024-01-21T13:06:14.862Z,1.00
2024-01-21T13:08:43.038Z,1.00
2024-01-21T13:11:12.000Z,1.00
2024-01-21T13:13:38.816Z,1.00
2024-01-21T13:16:06.924Z,1.00
2024-01-21T13:18:34.094Z,1.00
2024-01-21T13:21:01.198Z,1.00
2024-01-21T13:23:28.037Z,1.00
2024-01-21T13:25:55.169Z,1.00
2024-01-21T13:28:22.115Z,1.00
2024-01-21T13:30:54.634Z,1.00
2024-01-21T13:33:26.811Z,1.00
2024-01-21T13:35:54.440Z,1.00
2024-01-21T13:38:26.251Z,1.00
2024-01-21T13:40:53.913Z,1.00
2024-01-21T13:43:21.020Z,1.00
2024-01-21T13:45:47.928Z,1.00
2024-01-21T13:48:16.180Z,1.00
2024-01-21T13:50:46.475Z,1.00
2024-01-21T13:53:15.542Z,1.00
2024-01-21T13:55:42.597Z,1.00
2024-01-21T13:58:09.602Z,1.00
2024-01-21T14:00:36.863Z,1.00
2024-01-21T14:03:04.794Z,1.00
2024-01-21T14:05:32.151Z,1.00
2024-01-21T14:07:59.231Z,1.00
2024-01-21T14:10:26.234Z,1.00
2024-01-21T14:12:53.547Z,1.00
2024-01-21T14:15:20.941Z,1.00
2024-01-21T14:17:48.368Z,1.00
2024-01-21T14:20:15.577Z,1.00
2024-01-21T14:22:43.952Z,1.00
2024-01-21T14:25:24.945Z,1.00
2024-01-21T14:27:52.481Z,1.00
2024-01-21T14:30:26.980Z,1.00
2024-01-21T14:32:54.171Z,1.00
2024-01-21T14:35:21.743Z,1.00
2024-01-21T14:37:48.645Z,1.00
2024-01-21T14:40:16.170Z,1.00
2024-01-21T14:42:43.109Z,1.00
2024-01-21T14:45:11.329Z,1.00
2024-01-21T14:47:38.318Z,1.00
2024-01-21T14:50:05.906Z,1.00
2024-01-21T14:52:33.009Z,1.00
2024-01-21T14:54:59.842Z,1.00
2024-01-21T14:57:27.279Z,1.00
2024-01-21T14:59:54.930Z,1.00
2024-01-21T15:02:22.365Z,1.00
2024-01-21T15:04:49.629Z,1.00
2024-01-21T15:07:18.151Z,1.00
2024-01-21T15:09:46.281Z,1.00
2024-01-21T15:12:13.699Z,1.00
2024-01-21T15:14:57.010Z,1.00
2024-01-21T15:17:23.843Z,1.00
2024-01-21T15:19:50.736Z,1.00
2024-01-21T15:22:17.795Z,1.00
2024-01-21T15:24:44.769Z,1.00
2024-01-21T15:27:11.621Z,1.00
2024-01-21T15:29:39.145Z,1.00
2024-01-21T15:32:07.108Z,1.00
2024-01-21T15:34:39.304Z,1.00
2024-01-21T15:37:06.264Z,1.00
2024-01-21T15:39:33.246Z,1.00
2024-01-21T15:42:00.171Z,1.00
2024-01-21T15:44:28.006Z,1.00
2024-01-21T15:46:55.073Z,1.00
2024-01-21T15:49:22.125Z,1.00
2024-01-21T15:51:49.584Z,1.00
2024-01-21T15:54:17.082Z,1.00
2024-01-21T15:56:44.408Z,1.00
2024-01-21T15:59:11.950Z,1.00
2024-01-21T16:01:39.293Z,1.00
2024-01-21T16:04:06.236Z,1.00
2024-01-21T16:06:33.687Z,1.00
2024-01-21T16:09:00.671Z,1.00
2024-01-21T16:11:27.929Z,1.00
2024-01-21T16:13:54.781Z,1.00
2024-01-21T16:16:22.663Z,1.00
2024-01-21T16:18:51.325Z,1.00
2024-01-21T16:21:18.513Z,1.00
2024-01-21T16:23:45.567Z,1.00
2024-01-21T16:26:12.770Z,1.00
2024-01-21T16:28:40.487Z,1.00
2024-01-21T16:31:07.517Z,1.00
2024-01-21T16:33:35.325Z,1.00
2024-01-21T16:36:02.313Z,1.00
2024-01-21T16:38:29.197Z,1.00
2024-01-21T16:40:56.367Z,1.00
2024-01-21T16:43:24.743Z,1.00
2024-01-21T16:45:53.309Z,1.00
2024-01-21T16:48:23.508Z,1.00
2024-01-21T16:50:55.704Z,1.00
2024-01-21T16:53:29.988Z,1.00
2024-01-21T16:55:58.327Z,1.00
2024-01-21T16:58:25.283Z,1.00
2024-01-21T17:00:56.699Z,1.00
2024-01-21T17:03:24.867Z,1.00
2024-01-21T17:05:52.029Z,1.00
2024-01-21T17:08:18.898Z,1.00
2024-01-21T17:10:56.385Z,1.00
2024-01-21T17:13:23.358Z,1.00
2024-01-21T17:15:50.357Z,1.00
2024-01-21T17:18:25.439Z,1.00
2024-01-21T17:20:53.547Z,1.00
2024-01-21T17:23:21.406Z,1.00
2024-01-21T17:25:48.217Z,1.00
2024-01-21T17:28:15.025Z,1.00
2024-01-21T17:30:41.892Z,1.00
2024-01-21T17:33:10.775Z,1.00
2024-01-21T17:35:38.394Z,1.00
2024-01-21T17:38:05.375Z,1.00
2024-01-21T17:40:32.388Z,1.00
2024-01-21T17:42:59.372Z,1.00
2024-01-21T17:45:26.254Z,1.00
2024-01-21T17:47:53.123Z,1.00
2024-01-21T17:50:20.108Z,1.00
2024-01-21T17:52:46.872Z,1.00
2024-01-21T17:55:13.735Z,1.00
2024-01-21T17:57:40.551Z,1.00
2024-01-21T18:00:08.553Z,1.00
2024-01-21T18:02:35.617Z,1.00
2024-01-21T18:05:04.243Z,1.00
2024-01-21T18:07:31.183Z,1.00
2024-01-21T18:09:57.946Z,1.00
2024-01-21T18:12:24.826Z,1.00
2024-01-21T18:14:51.893Z,1.00
2024-01-21T18:17:18.896Z,1.00
2024-01-21T18:19:45.710Z,1.00
2024-01-21T18:22:13.458Z,1.00
2024-01-21T18:24:45.445Z,1.00
2024-01-21T18:27:13.086Z,1.00
2024-01-21T18:29:40.104Z,1.00
2024-01-21T18:32:07.346Z,1.00
2024-01-21T18:34:35.838Z,1.00
2024-01-21T18:37:04.257Z,1.00
2024-01-21T18:39:31.273Z,1.00
2024-01-21T18:41:58.470Z,1.00
2024-01-21T18:44:26.056Z,1.00
2024-01-21T18:46:53.768Z,1.00
2024-01-21T18:49:21.613Z,1.00
2024-01-21T18:51:49.633Z,1.00
2024-01-21T18:54:17.861Z,1.00
2024-01-21T18:56:45.120Z,1.00
2024-01-21T18:59:12.634Z,1.00
2024-01-21T19:01:39.473Z,1.00
2024-01-21T19:04:06.495Z,1.00
2024-01-21T19:06:34.291Z,1.00
2024-01-21T19:09:01.657Z,1.00
2024-01-21T19:11:28.899Z,1.00
2024-01-21T19:13:55.665Z,1.00
2024-01-21T19:16:22.509Z,1.00
2024-01-21T19:18:51.604Z,1.00
2024-01-21T19:21:27.413Z,1.00
2024-01-21T19:23:55.217Z,1.00
2024-01-21T19:26:22.397Z,1.00
2024-01-21T19:28:53.923Z,1.00
2024-01-21T19:31:21.185Z,1.00
2024-01-21T19:33:50.140Z,1.00
2024-01-21T19:36:17.499Z,1.00
2024-01-21T19:38:45.048Z,1.00
2024-01-21T19:41:13.978Z,1.00
2024-01-21T19:43:40.977Z,1.00
2024-01-21T19:46:09.510Z,1.00
2024-01-21T19:48:38.347Z,1.00
2024-01-21T19:51:07.036Z,1.00
2024-01-21T19:53:34.042Z,1.00
2024-01-21T19:56:01.287Z,1.00
2024-01-21T19:58:28.085Z,1.00
2024-01-21T20:00:55.024Z,1.00
2024-01-21T20:03:22.218Z,1.20
2024-01-21T20:05:50.897Z,1.00
2024-01-21T20:08:18.759Z,1.00
2024-01-21T20:10:47.075Z,1.00
2024-01-21T20:13:14.811Z,1.00
2024-01-21T20:15:41.683Z,1.00
2024-01-21T20:18:08.922Z,1.00
2024-01-21T20:20:35.806Z,1.00
2024-01-21T20:23:02.591Z,1.00
2024-01-21T20:25:29.351Z,1.00
2024-01-21T20:27:58.955Z,1.00
2024-01-21T20:30:29.010Z,1.00
2024-01-21T20:32:56.035Z,1.80
2024-01-21T20:35:22.867Z,1.00
2024-01-21T20:37:49.768Z,1.00
2024-01-21T20:40:16.796Z,1.00
2024-01-21T20:42:44.281Z,1.00
2024-01-21T20:45:11.421Z,1.20
2024-01-21T20:47:38.696Z,1.10
2024-01-21T20:50:06.202Z,1.30
2024-01-21T20:52:33.139Z,1.30
2024-01-21T20:55:02.481Z,1.60
2024-01-21T20:57:29.945Z,1.60
2024-01-21T20:59:56.840Z,1.70
2024-01-21T21:02:23.705Z,3.00
2024-01-21T21:04:50.951Z,1.80
2024-01-21T21:07:17.693Z,1.80
2024-01-21T21:09:44.512Z,1.90
2024-01-21T21:12:12.298Z,2.00
2024-01-21T21:14:39.283Z,2.10
2024-01-21T21:17:08.840Z,2.10
2024-01-21T21:19:35.700Z,2.20
2024-01-21T21:22:03.090Z,2.40
2024-01-21T21:24:29.978Z,2.40
2024-01-21T21:26:56.761Z,2.40
2024-01-21T21:29:23.664Z,2.80
2024-01-21T21:31:50.919Z,2.40
2024-01-21T21:34:18.002Z,2.40
2024-01-21T21:36:45.950Z,2.50
2024-01-21T21:39:13.388Z,2.60
2024-01-21T21:41:41.508Z,2.80
2024-01-21T21:44:08.496Z,2.80
2024-01-21T21:46:35.326Z,3.00
2024-01-21T21:49:02.585Z,3.00
2024-01-21T21:51:29.616Z,3.10
2024-01-21T21:53:56.732Z,3.40
2024-01-21T21:56:23.862Z,3.30
2024-01-21T21:58:53.190Z,3.20
2024-01-21T22:01:20.806Z,3.10
2024-01-21T22:03:48.379Z,3.00
2024-01-21T22:06:15.649Z,3.00
2024-01-21T22:08:42.837Z,3.00
2024-01-21T22:11:10.809Z,3.00
2024-01-21T22:13:37.810Z,3.00
2024-01-21T22:16:05.099Z,3.00
2024-01-21T22:18:34.653Z,3.00
2024-01-21T22:21:04.088Z,3.00
2024-01-21T22:23:30.995Z,3.00
2024-01-21T22:25:57.883Z,3.00
2024-01-21T22:28:24.895Z,3.10
2024-01-21T22:30:53.758Z,3.30
2024-01-21T22:33:20.769Z,3.20
2024-01-21T22:35:47.610Z,3.20
2024-01-21T22:38:14.419Z,3.10
2024-01-21T22:40:41.366Z,3.20
2024-01-21T22:43:08.172Z,3.10
2024-01-21T22:45:35.741Z,3.20
2024-01-21T22:48:02.648Z,3.20
2024-01-21T22:50:29.520Z,3.10
2024-01-21T22:52:56.348Z,3.20
2024-01-21T22:55:23.110Z,3.00
2024-01-21T22:57:50.114Z,3.00
2024-01-21T23:00:21.053Z,2.90
2024-01-21T23:02:48.828Z,2.80
2024-01-21T23:05:16.088Z,2.70
2024-01-21T23:07:42.951Z,2.50
2024-01-21T23:10:10.772Z,2.50
2024-01-21T23:12:38.222Z,2.40
2024-01-21T23:15:06.111Z,2.20
2024-01-21T23:17:33.482Z,2.20
2024-01-21T23:20:01.617Z,2.30
2024-01-21T23:22:28.417Z,2.20
2024-01-21T23:24:55.238Z,2.20
2024-01-21T23:27:22.015Z,2.20
2024-01-21T23:29:49.035Z,2.10
2024-01-21T23:32:15.821Z,2.10
2024-01-21T23:34:42.722Z,2.20
2024-01-21T23:37:09.864Z,2.20
2024-01-21T23:39:37.010Z,2.30
2024-01-21T23:42:04.139Z,2.20
2024-01-21T23:44:31.117Z,2.10
2024-01-21T23:46:57.895Z,2.10
2024-01-21T23:49:24.773Z,2.30
2024-01-21T23:51:53.404Z,2.20
2024-01-21T23:54:20.179Z,2.20
2024-01-21T23:56:50.779Z,2.30
2024-01-21T23:59:18.210Z,2.30
